WEATHER/FLIGHT PLANNING

Hattiesburg Radar

 

 

 

 

Weather Links

Flight Planning Links

 

METAR

2015/05/27 12:58 KHBG 271258Z AUTO 12008KT 10SM SCT007 OVC016 23/23 A3015 RMK AO2 T02330228

TAF

2015/05/27 12:21 TAF KHBG 271120Z 2712/2812 VRB03KT 1/2SM FG VV002 FM271400 VRB03KT 2SM BR BKN005 FM271500 20006KT P6SM VCSH SCT035 FM271800 17006KT P6SM VCTS BKN050CB FM280600 15001KT 6SM BR BKN250 FM280900 14001KT 1/2SM FG OVC003